createdAt,value
2023-11-01T00:01:28.194Z,99380.81
2023-11-01T00:03:58.104Z,99383.25
2023-11-01T00:06:27.955Z,99375.09
2023-11-01T00:08:59.454Z,99379.38
2023-11-01T00:11:29.306Z,99380.16
2023-11-01T00:13:59.077Z,99373.81
2023-11-01T00:16:31.509Z,99377.19
2023-11-01T00:19:01.297Z,99370.13
2023-11-01T00:21:31.125Z,99365.66
2023-11-01T00:24:01.447Z,99374.34
2023-11-01T00:26:31.209Z,99372.56
2023-11-01T00:29:01.273Z,99381.34
2023-11-01T00:31:33.748Z,99378.59
2023-11-01T00:34:03.553Z,99384.78
2023-11-01T00:36:33.381Z,99380.63
2023-11-01T00:39:03.254Z,99383.38
2023-11-01T00:41:34.300Z,99373.81
2023-11-01T00:44:04.104Z,99372.09
2023-11-01T00:46:36.543Z,99369.53
2023-11-01T00:49:06.422Z,99370.59
2023-11-01T00:51:36.492Z,99365.50
2023-11-01T00:54:07.194Z,99357.59
2023-11-01T00:56:37.102Z,99355.94
2023-11-01T00:59:06.985Z,99351.56
2023-11-01T01:01:39.311Z,99352.50
2023-11-01T01:04:09.270Z,99351.66
2023-11-01T01:06:39.498Z,99347.31
2023-11-01T01:09:15.671Z,99342.84
2023-11-01T01:11:47.665Z,99342.84
2023-11-01T01:14:19.083Z,99340.28
2023-11-01T01:16:51.631Z,99331.72
2023-11-01T01:19:23.406Z,99325.75
2023-11-01T01:21:53.245Z,99319.88
2023-11-01T01:24:23.208Z,99320.06
2023-11-01T01:26:52.983Z,99319.41
2023-11-01T01:29:22.873Z,99309.88
2023-11-01T01:31:55.257Z,99308.16
2023-11-01T01:34:25.010Z,99306.56
2023-11-01T01:36:54.808Z,99307.50
2023-11-01T01:39:24.611Z,99307.59
2023-11-01T01:41:54.446Z,99311.28
2023-11-01T01:44:24.337Z,99298.13
2023-11-01T01:46:59.066Z,99297.34
2023-11-01T01:49:33.339Z,99293.03
2023-11-01T01:52:09.878Z,99284.22
2023-11-01T01:54:40.790Z,99280.72
2023-11-01T01:57:11.065Z,99280.63
2023-11-01T01:59:41.030Z,99272.59
2023-11-01T02:02:13.966Z,99266.34
2023-11-01T02:04:43.775Z,99257.56
2023-11-01T02:07:13.768Z,99253.13
2023-11-01T02:09:43.728Z,99253.97
2023-11-01T02:12:13.667Z,99253.97
2023-11-01T02:14:43.554Z,99247.81
2023-11-01T02:17:16.094Z,99246.03
2023-11-01T02:19:46.042Z,99246.13
2023-11-01T02:22:15.825Z,99244.41
2023-11-01T02:24:48.549Z,99245.38
2023-11-01T02:27:18.407Z,99237.44
2023-11-01T02:29:49.146Z,99247.16
2023-11-01T02:32:19.003Z,99241.75
2023-11-01T02:34:48.864Z,99244.59
2023-11-01T02:37:18.680Z,99243.66
2023-11-01T02:39:51.054Z,99243.56
2023-11-01T02:42:20.818Z,99236.47
2023-11-01T02:44:50.574Z,99232.88
2023-11-01T02:47:20.383Z,99226.75
2023-11-01T02:49:50.238Z,99229.28
2023-11-01T02:52:20.033Z,99224.09
2023-11-01T02:54:52.709Z,99216.16
2023-11-01T02:57:22.484Z,99207.34
2023-11-01T02:59:52.313Z,99210.00
2023-11-01T03:02:22.139Z,99201.22
2023-11-01T03:04:51.910Z,99203.97
2023-11-01T03:07:21.757Z,99201.31
2023-11-01T03:09:54.215Z,99202.25
2023-11-01T03:12:24.011Z,99194.41
2023-11-01T03:14:53.777Z,99181.28
2023-11-01T03:17:23.615Z,99178.63
2023-11-01T03:19:53.443Z,99183.09
2023-11-01T03:22:24.423Z,99179.78
2023-11-01T03:24:56.866Z,99186.00
2023-11-01T03:27:26.674Z,99177.22
2023-11-01T03:29:57.334Z,99184.34
2023-11-01T03:32:27.200Z,99184.34
2023-11-01T03:34:57.073Z,99182.59
2023-11-01T03:37:26.894Z,99177.38
2023-11-01T03:39:59.271Z,99173.88
2023-11-01T03:42:29.053Z,99172.16
2023-11-01T03:44:59.458Z,99173.25
2023-11-01T03:47:30.506Z,99169.72
2023-11-01T03:50:01.749Z,99175.00
2023-11-01T03:52:31.689Z,99163.59
2023-11-01T03:55:04.475Z,99158.41
2023-11-01T03:57:34.451Z,99155.75
2023-11-01T04:00:04.890Z,99157.44
2023-11-01T04:02:34.745Z,99140.50
2023-11-01T04:05:05.409Z,99153.63
2023-11-01T04:07:35.223Z,99144.66
2023-11-01T04:10:11.195Z,99133.25
2023-11-01T04:12:41.102Z,99134.19
2023-11-01T04:15:14.041Z,99138.72
2023-11-01T04:17:43.851Z,99131.72
2023-11-01T04:20:14.689Z,99143.25
2023-11-01T04:22:44.580Z,99137.97
2023-11-01T04:25:16.956Z,99135.22
2023-11-01T04:27:48.392Z,99139.56
2023-11-01T04:30:19.477Z,99132.56
2023-11-01T04:32:50.902Z,99152.06
2023-11-01T04:35:21.158Z,99136.25
2023-11-01T04:37:51.005Z,99136.25
2023-11-01T04:40:23.390Z,99127.47
2023-11-01T04:42:53.178Z,99121.97
2023-11-01T04:45:23.148Z,99124.47
2023-11-01T04:47:52.979Z,99113.78
2023-11-01T04:50:23.218Z,99113.69
2023-11-01T04:52:53.026Z,99109.03
2023-11-01T04:55:25.667Z,99112.44
2023-11-01T04:57:55.408Z,99112.44
2023-11-01T05:00:25.565Z,99107.81
2023-11-01T05:02:55.794Z,99106.00
2023-11-01T05:05:25.904Z,99103.25
2023-11-01T05:07:56.254Z,99103.06
2023-11-01T05:10:28.803Z,99098.63
2023-11-01T05:12:56.015Z,99100.31
2023-11-01T05:15:25.787Z,99105.44
2023-11-01T05:17:55.626Z,99105.31
2023-11-01T05:20:25.460Z,99098.97
2023-11-01T05:22:55.289Z,99098.88
2023-11-01T05:25:30.067Z,99097.84
2023-11-01T05:28:03.150Z,99098.69
2023-11-01T05:30:32.996Z,99101.97
2023-11-01T05:33:03.213Z,99100.06
2023-11-01T05:35:38.006Z,99092.88
2023-11-01T05:38:09.529Z,99095.44
2023-11-01T05:40:39.350Z,99091.94
2023-11-01T05:43:12.014Z,99090.25
2023-11-01T05:45:42.057Z,99094.59
2023-11-01T05:48:11.949Z,99089.28
2023-11-01T05:50:42.751Z,99086.66
2023-11-01T05:53:12.595Z,99092.69
2023-11-01T05:55:54.506Z,99097.03
2023-11-01T05:58:35.077Z,99092.47
2023-11-01T06:01:04.904Z,99091.41
2023-11-01T06:03:34.888Z,99095.66
2023-11-01T06:06:04.816Z,99098.22
2023-11-01T06:08:34.720Z,99097.16
2023-11-01T06:11:04.588Z,99090.81
2023-11-01T06:13:37.236Z,99088.16
2023-11-01T06:16:09.219Z,99096.13
2023-11-01T06:18:38.959Z,99092.63
2023-11-01T06:21:09.470Z,99098.75
2023-11-01T06:23:39.807Z,99099.59
2023-11-01T06:26:09.788Z,99099.53
2023-11-01T06:28:42.173Z,99105.44
2023-11-01T06:31:12.071Z,99106.22
2023-11-01T06:33:42.109Z,99100.81
2023-11-01T06:36:12.587Z,99112.03
2023-11-01T06:38:42.389Z,99110.03
2023-11-01T06:41:12.466Z,99106.34
2023-11-01T06:43:45.480Z,99116.72
2023-11-01T06:46:15.485Z,99113.97
2023-11-01T06:48:45.473Z,99116.44
2023-11-01T06:51:15.716Z,99121.53
2023-11-01T06:53:45.772Z,99123.00
2023-11-01T06:56:15.638Z,99120.25
2023-11-01T06:58:48.003Z,99121.03
2023-11-01T07:01:17.777Z,99114.63
2023-11-01T07:03:47.721Z,99116.22
2023-11-01T07:06:17.547Z,99120.38
2023-11-01T07:08:48.013Z,99121.84
2023-11-01T07:11:20.186Z,99121.69
2023-11-01T07:13:52.790Z,99118.16
2023-11-01T07:16:22.564Z,99120.81
2023-11-01T07:18:52.337Z,99110.97
2023-11-01T07:21:22.339Z,99112.56
2023-11-01T07:23:52.321Z,99114.03
2023-11-01T07:26:22.290Z,99118.19
2023-11-01T07:28:54.826Z,99112.56
2023-11-01T07:31:24.634Z,99107.69
2023-11-01T07:33:54.792Z,99108.00
2023-11-01T07:36:24.970Z,99098.53
2023-11-01T07:38:54.911Z,99091.75
2023-11-01T07:41:24.761Z,99098.97
2023-11-01T07:43:57.141Z,99092.16
2023-11-01T07:46:26.960Z,99101.16
2023-11-01T07:48:56.711Z,99089.03
2023-11-01T07:51:26.687Z,99092.94
2023-11-01T07:53:57.283Z,99095.03
2023-11-01T07:56:27.093Z,99091.06
2023-11-01T07:58:59.451Z,99095.22
2023-11-01T08:01:29.330Z,99096.69
2023-11-01T08:03:59.252Z,99096.44
2023-11-01T08:06:29.108Z,99086.56
2023-11-01T08:08:59.724Z,99088.16
2023-11-01T08:11:29.541Z,99087.91
2023-11-01T08:14:01.949Z,99095.53
2023-11-01T08:16:32.069Z,99087.97
2023-11-01T08:19:01.935Z,99090.06
2023-11-01T08:21:33.638Z,99087.66
2023-11-01T08:24:03.493Z,99085.03
2023-11-01T08:26:33.324Z,99088.22
2023-11-01T08:29:05.868Z,99091.09
2023-11-01T08:31:35.705Z,99084.13
2023-11-01T08:34:05.684Z,99076.25
2023-11-01T08:36:35.543Z,99081.56
2023-11-01T08:39:05.407Z,99077.81
2023-11-01T08:41:35.284Z,99071.53
2023-11-01T08:44:08.221Z,99071.16
2023-11-01T08:46:38.001Z,99066.97
2023-11-01T08:49:07.764Z,99062.69
2023-11-01T08:51:39.473Z,99071.88
2023-11-01T08:54:10.607Z,99069.44
2023-11-01T08:56:40.507Z,99070.19
2023-11-01T08:59:12.945Z,99060.59
2023-11-01T09:01:42.907Z,99059.81
2023-11-01T09:04:15.055Z,99069.69
2023-11-01T09:06:44.975Z,99056.00
2023-11-01T09:09:15.209Z,99061.94
2023-11-01T09:11:46.158Z,99059.59
2023-11-01T09:14:18.586Z,99060.00
2023-11-01T09:16:48.381Z,99057.09
2023-11-01T09:19:18.175Z,99058.38
2023-11-01T09:21:48.394Z,99066.16
2023-11-01T09:24:18.165Z,99061.97
2023-11-01T09:26:48.591Z,99065.94
2023-11-01T09:29:21.090Z,99069.44
2023-11-01T09:31:50.931Z,99072.44
2023-11-01T09:34:20.859Z,99077.00
2023-11-01T09:36:50.672Z,99075.91
2023-11-01T09:39:20.627Z,99079.94
2023-11-01T09:41:53.879Z,99078.28
2023-11-01T09:44:26.313Z,99079.28
2023-11-01T09:46:56.249Z,99077.66
2023-11-01T09:49:26.356Z,99081.81
2023-11-01T09:51:56.316Z,99082.34
2023-11-01T09:54:26.285Z,99078.94
2023-11-01T09:56:59.081Z,99072.03
2023-11-01T09:59:33.837Z,99079.06
2023-11-01T10:02:03.791Z,99072.16
2023-11-01T10:04:35.792Z,99070.69
2023-11-01T10:07:05.610Z,99064.66
2023-11-01T10:09:35.434Z,99063.66
2023-11-01T10:12:09.167Z,99059.31
2023-11-01T10:14:41.651Z,99054.66
2023-11-01T10:17:11.521Z,99049.88
2023-11-01T10:19:45.465Z,99039.28
2023-11-01T10:22:15.271Z,99041.53
2023-11-01T10:24:45.585Z,99042.78
2023-11-01T10:27:15.428Z,99039.50
2023-11-01T10:29:49.329Z,99033.75
2023-11-01T10:32:18.998Z,99033.75
2023-11-01T10:34:48.811Z,99036.41
2023-11-01T10:37:25.763Z,99033.81
2023-11-01T10:39:57.044Z,99020.97
2023-11-01T10:42:27.090Z,99019.53
2023-11-01T10:44:59.539Z,99012.28
2023-11-01T10:47:29.534Z,99006.41
2023-11-01T10:50:00.830Z,99007.78
2023-11-01T10:52:31.174Z,99001.59
2023-11-01T10:55:02.203Z,98989.69
2023-11-01T10:57:32.314Z,99000.22
2023-11-01T11:00:14.039Z,98989.41
2023-11-01T11:02:50.881Z,98978.03
2023-11-01T11:05:31.281Z,98974.47
2023-11-01T11:08:01.144Z,98965.31
2023-11-01T11:10:34.436Z,98960.66
2023-11-01T11:13:29.968Z,98957.94
2023-11-01T11:16:01.467Z,98964.84
2023-11-01T11:18:53.242Z,98957.19
2023-11-01T11:21:53.143Z,98956.53
2023-11-01T11:24:56.879Z,98946.91
2023-11-01T11:27:57.143Z,98948.75
2023-11-01T11:31:07.435Z,98952.41
2023-11-01T11:33:38.348Z,98946.69
2023-11-01T11:36:16.281Z,98941.81
2023-11-01T11:38:53.818Z,98936.34
2023-11-01T11:41:25.172Z,98926.44
2023-11-01T11:44:12.492Z,98930.66
2023-11-01T11:46:43.637Z,98922.09
2023-11-01T11:49:24.410Z,98919.63
2023-11-01T11:51:55.834Z,98917.09
2023-11-01T11:54:27.640Z,98914.00
2023-11-01T11:56:57.921Z,98912.69
2023-11-01T11:59:31.462Z,98911.25
2023-11-01T12:02:11.435Z,98907.03
2023-11-01T12:04:44.221Z,98898.19
2023-11-01T12:07:20.033Z,98896.38
2023-11-01T12:09:53.401Z,98895.66
2023-11-01T12:12:23.315Z,98893.13
2023-11-01T12:15:03.237Z,98888.78
2023-11-01T12:17:34.795Z,98888.91
2023-11-01T12:20:04.741Z,98896.16
2023-11-01T12:22:38.651Z,98886.66
2023-11-01T12:25:09.892Z,98886.75
2023-11-01T12:27:41.620Z,98882.00
2023-11-01T12:30:23.826Z,98874.34
2023-11-01T12:32:54.539Z,98878.91
2023-11-01T12:35:24.406Z,98866.06
2023-11-01T12:37:54.213Z,98851.72
2023-11-01T12:40:28.061Z,98850.50
2023-11-01T12:43:11.300Z,98848.44
2023-11-01T12:45:43.750Z,98852.41
2023-11-01T12:48:13.825Z,98846.81
2023-11-01T12:50:43.714Z,98844.88
2023-11-01T12:53:13.959Z,98838.69
2023-11-01T12:55:43.782Z,98834.59
2023-11-01T12:58:16.558Z,98830.75
2023-11-01T13:00:49.042Z,98825.22
2023-11-01T13:03:18.982Z,98822.97
2023-11-01T13:05:49.204Z,98813.16
2023-11-01T13:08:19.533Z,98819.31
2023-11-01T13:10:49.323Z,98812.44
2023-11-01T13:13:19.287Z,98803.03
2023-11-01T13:15:51.742Z,98804.38
2023-11-01T13:18:21.673Z,98796.91
2023-11-01T13:20:51.838Z,98798.66
2023-11-01T13:23:21.629Z,98800.16
2023-11-01T13:25:51.709Z,98778.41
2023-11-01T13:28:22.075Z,98781.34
2023-11-01T13:30:54.581Z,98770.81
2023-11-01T13:33:24.439Z,98778.94
2023-11-01T13:35:54.406Z,98758.88
2023-11-01T13:38:24.171Z,98773.56
2023-11-01T13:40:53.940Z,98766.94
2023-11-01T13:43:23.710Z,98764.03
2023-11-01T13:45:56.293Z,98760.22
2023-11-01T13:48:26.211Z,98760.75
2023-11-01T13:50:56.421Z,98762.94
2023-11-01T13:53:27.002Z,98757.88
2023-11-01T13:55:56.798Z,98758.00
2023-11-01T13:58:27.927Z,98758.22
2023-11-01T14:01:01.755Z,98755.97
2023-11-01T14:03:33.771Z,98740.25
2023-11-01T14:06:03.909Z,98736.88
2023-11-01T14:08:33.944Z,98728.28
2023-11-01T14:11:03.905Z,98723.19
2023-11-01T14:13:33.716Z,98701.47
2023-11-01T14:16:06.269Z,98721.28
2023-11-01T14:18:36.111Z,98709.34
2023-11-01T14:21:06.394Z,98710.56
2023-11-01T14:23:36.240Z,98697.41
2023-11-01T14:26:06.137Z,98701.03
2023-11-01T14:28:35.955Z,98707.44
2023-11-01T14:31:08.352Z,98709.28
2023-11-01T14:33:38.537Z,98705.03
2023-11-01T14:36:09.934Z,98697.19
2023-11-01T14:38:39.756Z,98699.97
2023-11-01T14:41:09.647Z,98694.81
2023-11-01T14:43:39.444Z,98700.38
2023-11-01T14:46:12.034Z,98697.13
2023-11-01T14:48:44.535Z,98696.28
2023-11-01T14:51:14.451Z,98699.91
2023-11-01T14:53:44.275Z,98701.69
2023-11-01T14:56:17.792Z,98695.53
2023-11-01T14:58:50.114Z,98690.34
2023-11-01T15:01:22.673Z,98689.63
2023-11-01T15:03:52.827Z,98686.25
2023-11-01T15:06:22.694Z,98682.03
2023-11-01T15:08:52.634Z,98681.19
2023-11-01T15:11:22.588Z,98675.16
2023-11-01T15:13:52.737Z,98673.47
2023-11-01T15:16:25.174Z,98668.41
2023-11-01T15:18:54.959Z,98659.59
2023-11-01T15:21:24.872Z,98662.38
2023-11-01T15:23:54.689Z,98664.31
2023-11-01T15:26:26.011Z,98658.16
2023-11-01T15:28:56.658Z,98662.59
2023-11-01T15:31:29.025Z,98657.44
2023-11-01T15:34:00.125Z,98656.59
2023-11-01T15:36:30.079Z,98652.25
2023-11-01T15:39:00.035Z,98659.38
2023-11-01T15:41:29.944Z,98651.28
2023-11-01T15:43:59.732Z,98641.47
2023-11-01T15:46:32.359Z,98638.69
2023-11-01T15:49:02.257Z,98646.78
2023-11-01T15:51:32.058Z,98649.44
2023-11-01T15:54:01.886Z,98652.25
2023-11-01T15:56:31.694Z,98636.03
2023-11-01T15:59:01.795Z,98641.22
2023-11-01T16:01:34.206Z,98642.09
2023-11-01T16:04:04.292Z,98621.66
2023-11-01T16:06:34.490Z,98629.63
2023-11-01T16:09:05.636Z,98630.50
2023-11-01T16:11:35.692Z,98625.19
2023-11-01T16:14:06.177Z,98633.16
2023-11-01T16:16:38.922Z,98619.88
2023-11-01T16:19:09.357Z,98613.69
2023-11-01T16:21:39.162Z,98605.59
2023-11-01T16:24:10.003Z,98595.09
2023-11-01T16:26:39.790Z,98609.47
2023-11-01T16:29:09.607Z,98602.59
2023-11-01T16:31:42.031Z,98601.28
2023-11-01T16:34:11.952Z,98594.81
2023-11-01T16:36:41.737Z,98593.63
2023-11-01T16:39:11.664Z,98594.09
2023-11-01T16:41:42.072Z,98599.78
2023-11-01T16:44:11.980Z,98600.63
2023-11-01T16:46:44.345Z,98599.06
2023-11-01T16:49:14.894Z,98596.53
2023-11-01T16:51:47.125Z,98600.88
2023-11-01T16:54:19.695Z,98590.13
2023-11-01T16:56:49.750Z,98602.31
2023-11-01T16:59:19.822Z,98599.41
2023-11-01T17:01:52.333Z,98607.84
2023-11-01T17:04:22.240Z,98620.88
2023-11-01T17:06:52.065Z,98616.31
2023-11-01T17:09:21.940Z,98610.72
2023-11-01T17:11:52.416Z,98611.34
2023-11-01T17:14:22.203Z,98625.19
2023-11-01T17:16:54.876Z,98611.78
2023-11-01T17:19:24.649Z,98638.25
2023-11-01T17:21:55.121Z,98635.47
2023-11-01T17:24:27.758Z,98631.13
2023-11-01T17:26:58.881Z,98640.78
2023-11-01T17:29:33.574Z,98646.94
2023-11-01T17:32:06.282Z,98650.41
2023-11-01T17:34:36.144Z,98652.25
2023-11-01T17:37:07.166Z,98646.09
2023-11-01T17:39:41.574Z,98639.91
2023-11-01T17:42:12.636Z,98634.16
2023-11-01T17:44:45.761Z,98623.06
2023-11-01T17:47:27.222Z,98614.75
2023-11-01T17:50:01.684Z,98634.78
2023-11-01T17:52:37.254Z,98635.16
2023-11-01T17:55:09.682Z,98643.50
2023-11-01T17:57:41.109Z,98637.56
2023-11-01T18:00:12.092Z,98637.81
2023-11-01T18:03:26.824Z,98624.53
2023-11-01T18:06:10.501Z,98622.16
2023-11-01T18:08:41.406Z,98610.78
2023-11-01T18:11:12.957Z,98619.00
2023-11-01T18:13:43.934Z,98635.41
2023-11-01T18:16:14.050Z,98631.81
2023-11-01T18:18:42.990Z,98623.91
2023-11-01T18:21:19.608Z,98612.34
2023-11-01T18:23:55.062Z,98635.09
2023-11-01T18:26:25.289Z,98635.84
2023-11-01T18:28:56.596Z,98637.97
2023-11-01T18:31:29.061Z,98635.91
2023-11-01T18:34:02.860Z,98643.34
2023-11-01T18:36:41.450Z,98636.97
2023-11-01T18:39:13.200Z,98635.75
2023-11-01T18:41:45.015Z,98641.38
2023-11-01T18:44:26.544Z,98628.47
2023-11-01T18:46:56.783Z,98627.13
2023-11-01T18:50:05.758Z,98617.72
2023-11-01T18:52:38.233Z,98621.81
2023-11-01T18:55:11.164Z,98620.94
2023-11-01T18:57:41.527Z,98621.69
2023-11-01T19:00:12.710Z,98623.25
2023-11-01T19:03:08.636Z,98612.06
2023-11-01T19:05:39.080Z,98607.16
2023-11-01T19:08:11.620Z,98612.84
2023-11-01T19:10:42.716Z,98613.34
2023-11-01T19:13:13.842Z,98612.97
2023-11-01T19:16:25.197Z,98621.44
2023-11-01T19:18:56.407Z,98614.31
2023-11-01T19:21:26.600Z,98610.22
2023-11-01T19:23:59.397Z,98604.91
2023-11-01T19:26:30.485Z,98604.97
2023-11-01T19:29:00.458Z,98607.81
2023-11-01T19:31:33.324Z,98606.91
2023-11-01T19:34:03.297Z,98616.63
2023-11-01T19:36:30.685Z,98613.91
2023-11-01T19:39:03.358Z,98619.78
2023-11-01T19:41:33.285Z,98616.84
2023-11-01T19:44:04.786Z,98618.13
2023-11-01T19:46:37.838Z,98614.22
2023-11-01T19:49:07.973Z,98602.03
2023-11-01T19:51:38.040Z,98607.34
2023-11-01T19:54:11.441Z,98614.09
2023-11-01T19:56:41.554Z,98612.72
2023-11-01T19:59:12.671Z,98618.41
2023-11-01T20:01:42.616Z,98611.84
2023-11-01T20:04:12.387Z,98605.47
2023-11-01T20:06:42.476Z,98601.97
2023-11-01T20:09:15.108Z,98603.38
2023-11-01T20:11:45.080Z,98595.25
2023-11-01T20:14:18.725Z,98601.28
2023-11-01T20:16:48.615Z,98599.06
2023-11-01T20:19:19.105Z,98600.78
2023-11-01T20:21:48.947Z,98597.91
2023-11-01T20:24:21.333Z,98592.22
2023-11-01T20:26:51.644Z,98590.91
2023-11-01T20:29:21.446Z,98582.63
2023-11-01T20:31:51.706Z,98579.66
2023-11-01T20:34:21.578Z,98578.47
2023-11-01T20:36:51.360Z,98579.13
2023-11-01T20:39:23.812Z,98572.72
2023-11-01T20:41:53.733Z,98576.94
2023-11-01T20:44:25.759Z,98569.88
2023-11-01T20:46:55.803Z,98570.59
2023-11-01T20:49:26.129Z,98577.47
2023-11-01T20:51:55.908Z,98580.00
2023-11-01T20:54:29.777Z,98578.94
2023-11-01T20:56:59.544Z,98566.63
2023-11-01T20:59:30.963Z,98563.03
2023-11-01T21:02:01.137Z,98570.16
2023-11-01T21:04:31.756Z,98555.94
2023-11-01T21:07:04.157Z,98552.31
2023-11-01T21:09:37.234Z,98541.72
2023-11-01T21:12:07.304Z,98537.38
2023-11-01T21:14:38.577Z,98540.91
2023-11-01T21:17:09.710Z,98532.97
2023-11-01T21:19:39.577Z,98512.72
2023-11-01T21:22:09.952Z,98508.38
2023-11-01T21:24:42.475Z,98489.72
2023-11-01T21:27:12.275Z,98487.19
2023-11-01T21:29:42.537Z,98498.66
2023-11-01T21:32:12.402Z,98481.91
2023-11-01T21:34:42.679Z,98476.59
2023-11-01T21:37:12.701Z,98466.00
2023-11-01T21:39:45.032Z,98447.47
2023-11-01T21:42:15.537Z,98441.22
2023-11-01T21:44:45.705Z,98430.63
2023-11-01T21:47:16.419Z,98442.06
2023-11-01T21:49:47.859Z,98441.34
2023-11-01T21:52:22.025Z,98435.94
2023-11-01T21:54:54.763Z,98437.63
2023-11-01T21:57:29.388Z,98424.38
2023-11-01T22:00:02.268Z,98423.44
2023-11-01T22:02:49.803Z,98427.75
2023-11-01T22:05:20.989Z,98425.97
2023-11-01T22:07:53.255Z,98421.50
2023-11-01T22:10:37.479Z,98405.59
2023-11-01T22:13:07.576Z,98404.66
2023-11-01T22:15:39.437Z,98400.94
2023-11-01T22:18:09.575Z,98400.06
2023-11-01T22:20:39.435Z,98407.88
2023-11-01T22:23:09.255Z,98406.09
2023-11-01T22:25:42.448Z,98408.75
2023-11-01T22:28:12.921Z,98384.06
2023-11-01T22:30:42.647Z,98388.63
2023-11-01T22:33:15.078Z,98388.88
2023-11-01T22:35:46.782Z,98382.34
2023-11-01T22:38:15.363Z,98378.38
2023-11-01T22:40:48.211Z,98353.47
2023-11-01T22:43:19.464Z,98356.69
2023-11-01T22:45:49.284Z,98354.66
2023-11-01T22:48:19.598Z,98348.75
2023-11-01T22:50:49.478Z,98346.50
2023-11-01T22:53:21.050Z,98347.81
2023-11-01T22:55:53.533Z,98346.50
2023-11-01T22:58:23.315Z,98346.59
2023-11-01T23:00:54.070Z,98334.00
2023-11-01T23:03:23.910Z,98335.56
2023-11-01T23:05:53.889Z,98333.66
2023-11-01T23:08:23.677Z,98330.38
2023-11-01T23:10:56.111Z,98330.84
2023-11-01T23:13:23.311Z,98311.97
2023-11-01T23:15:53.137Z,98301.81
2023-11-01T23:18:22.992Z,98297.84
2023-11-01T23:20:52.855Z,98292.16
2023-11-01T23:23:23.837Z,98281.94
2023-11-01T23:25:58.691Z,98275.31
2023-11-01T23:28:42.458Z,98273.75
2023-11-01T23:31:14.139Z,98275.91
2023-11-01T23:33:44.676Z,98258.56
2023-11-01T23:36:19.838Z,98264.09
2023-11-01T23:38:56.447Z,98266.22
2023-11-01T23:41:41.034Z,98257.59
2023-11-01T23:44:10.966Z,98250.00
2023-11-01T23:46:40.955Z,98258.16
2023-11-01T23:49:10.923Z,98238.91
2023-11-01T23:51:59.333Z,98244.31
2023-11-01T23:54:30.677Z,98233.25
2023-11-01T23:57:12.808Z,98230.00
2023-11-01T23:59:43.943Z,98202.94
